sensor_id;sensor_type;location;lat;lon;timestamp;P1;durP1;ratioP1;P2;durP2;ratioP2
82163;SDS011;71736;38.734;-9.138;2024-01-30T00:01:22;22.50;;;12.40;;
82163;SDS011;71736;38.734;-9.138;2024-01-30T00:03:47;21.70;;;13.20;;
82163;SDS011;71736;38.734;-9.138;2024-01-30T00:06:13;22.80;;;13.10;;
82163;SDS011;71736;38.734;-9.138;2024-01-30T00:08:38;21.70;;;13.30;;
82163;SDS011;71736;38.734;-9.138;2024-01-30T00:11:04;19.10;;;11.80;;
82163;SDS011;71736;38.734;-9.138;2024-01-30T00:13:30;23.50;;;12.40;;
82163;SDS011;71736;38.734;-9.138;2024-01-30T00:15:56;16.30;;;10.90;;
82163;SDS011;71736;38.734;-9.138;2024-01-30T00:18:21;18.00;;;11.40;;
82163;SDS011;71736;38.734;-9.138;2024-01-30T00:20:46;18.40;;;11.50;;
82163;SDS011;71736;38.734;-9.138;2024-01-30T00:23:12;18.00;;;11.60;;
82163;SDS011;71736;38.734;-9.138;2024-01-30T00:25:38;18.70;;;10.70;;
82163;SDS011;71736;38.734;-9.138;2024-01-30T00:28:04;15.50;;;9.70;;
82163;SDS011;71736;38.734;-9.138;2024-01-30T00:30:29;16.10;;;10.40;;
82163;SDS011;71736;38.734;-9.138;2024-01-30T00:32:55;17.40;;;10.40;;
82163;SDS011;71736;38.734;-9.138;2024-01-30T00:35:20;17.00;;;9.70;;
82163;SDS011;71736;38.734;-9.138;2024-01-30T00:37:47;14.50;;;9.50;;
82163;SDS011;71736;38.734;-9.138;2024-01-30T00:40:13;19.60;;;9.10;;
82163;SDS011;71736;38.734;-9.138;2024-01-30T00:42:44;18.20;;;10.10;;
82163;SDS011;71736;38.734;-9.138;2024-01-30T00:45:15;16.90;;;10.20;;
82163;SDS011;71736;38.734;-9.138;2024-01-30T00:47:42;15.80;;;9.40;;
82163;SDS011;71736;38.734;-9.138;2024-01-30T00:50:08;15.60;;;10.20;;
82163;SDS011;71736;38.734;-9.138;2024-01-30T00:52:33;16.10;;;11.20;;
82163;SDS011;71736;38.734;-9.138;2024-01-30T00:54:59;17.60;;;10.60;;
82163;SDS011;71736;38.734;-9.138;2024-01-30T00:57:25;16.40;;;11.20;;
82163;SDS011;71736;38.734;-9.138;2024-01-30T00:59:52;23.90;;;12.60;;
82163;SDS011;71736;38.734;-9.138;2024-01-30T01:02:17;18.70;;;12.60;;
82163;SDS011;71736;38.734;-9.138;2024-01-30T01:04:43;17.20;;;11.00;;
82163;SDS011;71736;38.734;-9.138;2024-01-30T01:07:09;19.80;;;12.20;;
82163;SDS011;71736;38.734;-9.138;2024-01-30T01:09:35;17.60;;;11.50;;
82163;SDS011;71736;38.734;-9.138;2024-01-30T01:12:01;20.00;;;11.70;;
82163;SDS011;71736;38.734;-9.138;2024-01-30T01:14:27;19.90;;;11.60;;
82163;SDS011;71736;38.734;-9.138;2024-01-30T01:16:52;17.80;;;11.10;;
82163;SDS011;71736;38.734;-9.138;2024-01-30T01:19:18;17.50;;;11.90;;
82163;SDS011;71736;38.734;-9.138;2024-01-30T01:21:43;19.20;;;10.80;;
82163;SDS011;71736;38.734;-9.138;2024-01-30T01:24:09;16.80;;;11.90;;
82163;SDS011;71736;38.734;-9.138;2024-01-30T01:26:34;17.50;;;10.20;;
82163;SDS011;71736;38.734;-9.138;2024-01-30T01:29:00;20.30;;;11.10;;
82163;SDS011;71736;38.734;-9.138;2024-01-30T01:31:25;14.40;;;11.40;;
82163;SDS011;71736;38.734;-9.138;2024-01-30T01:33:54;17.80;;;11.20;;
82163;SDS011;71736;38.734;-9.138;2024-01-30T01:36:20;18.70;;;11.60;;
82163;SDS011;71736;38.734;-9.138;2024-01-30T01:38:46;20.00;;;11.90;;
82163;SDS011;71736;38.734;-9.138;2024-01-30T01:41:11;17.80;;;11.60;;
82163;SDS011;71736;38.734;-9.138;2024-01-30T01:43:37;22.90;;;12.10;;
82163;SDS011;71736;38.734;-9.138;2024-01-30T01:46:04;18.40;;;10.70;;
82163;SDS011;71736;38.734;-9.138;2024-01-30T01:48:30;20.40;;;10.80;;
82163;SDS011;71736;38.734;-9.138;2024-01-30T01:50:55;16.80;;;11.10;;
82163;SDS011;71736;38.734;-9.138;2024-01-30T01:53:22;18.60;;;11.60;;
82163;SDS011;71736;38.734;-9.138;2024-01-30T01:55:47;17.70;;;10.80;;
82163;SDS011;71736;38.734;-9.138;2024-01-30T01:58:13;17.30;;;10.60;;
82163;SDS011;71736;38.734;-9.138;2024-01-30T02:00:40;21.20;;;14.20;;
82163;SDS011;71736;38.734;-9.138;2024-01-30T02:03:08;21.70;;;12.70;;
82163;SDS011;71736;38.734;-9.138;2024-01-30T02:05:35;17.90;;;12.10;;
82163;SDS011;71736;38.734;-9.138;2024-01-30T02:08:01;19.00;;;12.20;;
82163;SDS011;71736;38.734;-9.138;2024-01-30T02:10:27;18.60;;;12.80;;
82163;SDS011;71736;38.734;-9.138;2024-01-30T02:12:52;20.80;;;12.20;;
82163;SDS011;71736;38.734;-9.138;2024-01-30T02:15:18;21.80;;;12.30;;
82163;SDS011;71736;38.734;-9.138;2024-01-30T02:17:43;18.10;;;11.30;;
82163;SDS011;71736;38.734;-9.138;2024-01-30T02:20:09;20.90;;;11.60;;
82163;SDS011;71736;38.734;-9.138;2024-01-30T02:22:35;21.10;;;11.90;;
82163;SDS011;71736;38.734;-9.138;2024-01-30T02:25:01;21.10;;;12.50;;
82163;SDS011;71736;38.734;-9.138;2024-01-30T02:27:27;20.00;;;12.50;;
82163;SDS011;71736;38.734;-9.138;2024-01-30T02:29:53;19.00;;;12.60;;
82163;SDS011;71736;38.734;-9.138;2024-01-30T02:32:18;20.70;;;12.90;;
82163;SDS011;71736;38.734;-9.138;2024-01-30T02:34:44;19.80;;;13.40;;
82163;SDS011;71736;38.734;-9.138;2024-01-30T02:37:09;21.30;;;12.30;;
82163;SDS011;71736;38.734;-9.138;2024-01-30T02:39:35;19.70;;;13.50;;
82163;SDS011;71736;38.734;-9.138;2024-01-30T02:42:00;19.80;;;12.30;;
82163;SDS011;71736;38.734;-9.138;2024-01-30T02:44:26;19.10;;;12.70;;
82163;SDS011;71736;38.734;-9.138;2024-01-30T02:46:51;21.60;;;14.00;;
82163;SDS011;71736;38.734;-9.138;2024-01-30T02:49:19;23.00;;;13.80;;
82163;SDS011;71736;38.734;-9.138;2024-01-30T02:51:45;20.80;;;13.10;;
82163;SDS011;71736;38.734;-9.138;2024-01-30T02:54:10;20.30;;;12.50;;
82163;SDS011;71736;38.734;-9.138;2024-01-30T02:56:36;22.60;;;12.80;;
82163;SDS011;71736;38.734;-9.138;2024-01-30T02:59:01;20.80;;;13.90;;
82163;SDS011;71736;38.734;-9.138;2024-01-30T03:01:26;19.90;;;12.80;;
82163;SDS011;71736;38.734;-9.138;2024-01-30T03:03:52;21.00;;;14.10;;
82163;SDS011;71736;38.734;-9.138;2024-01-30T03:06:17;21.80;;;13.40;;
82163;SDS011;71736;38.734;-9.138;2024-01-30T03:08:45;19.00;;;13.80;;
82163;SDS011;71736;38.734;-9.138;2024-01-30T03:11:10;21.00;;;14.20;;
82163;SDS011;71736;38.734;-9.138;2024-01-30T03:13:36;20.00;;;12.50;;
82163;SDS011;71736;38.734;-9.138;2024-01-30T03:16:01;25.70;;;14.40;;
82163;SDS011;71736;38.734;-9.138;2024-01-30T03:18:27;21.00;;;13.40;;
82163;SDS011;71736;38.734;-9.138;2024-01-30T03:20:53;18.80;;;13.70;;
82163;SDS011;71736;38.734;-9.138;2024-01-30T03:23:18;21.80;;;14.20;;
82163;SDS011;71736;38.734;-9.138;2024-01-30T03:25:44;20.70;;;13.40;;
82163;SDS011;71736;38.734;-9.138;2024-01-30T03:28:09;21.20;;;13.90;;
82163;SDS011;71736;38.734;-9.138;2024-01-30T03:30:35;21.60;;;13.90;;
82163;SDS011;71736;38.734;-9.138;2024-01-30T03:33:00;25.80;;;14.70;;
82163;SDS011;71736;38.734;-9.138;2024-01-30T03:35:26;23.80;;;14.60;;
82163;SDS011;71736;38.734;-9.138;2024-01-30T03:37:51;20.60;;;14.10;;
82163;SDS011;71736;38.734;-9.138;2024-01-30T03:40:17;22.20;;;13.60;;
82163;SDS011;71736;38.734;-9.138;2024-01-30T03:42:42;19.90;;;13.40;;
82163;SDS011;71736;38.734;-9.138;2024-01-30T03:45:08;24.80;;;13.70;;
82163;SDS011;71736;38.734;-9.138;2024-01-30T03:47:34;22.40;;;13.00;;
82163;SDS011;71736;38.734;-9.138;2024-01-30T03:49:59;21.90;;;13.90;;
82163;SDS011;71736;38.734;-9.138;2024-01-30T03:52:25;20.60;;;13.40;;
82163;SDS011;71736;38.734;-9.138;2024-01-30T03:54:50;21.30;;;12.50;;
82163;SDS011;71736;38.734;-9.138;2024-01-30T03:57:16;17.10;;;11.70;;
82163;SDS011;71736;38.734;-9.138;2024-01-30T03:59:44;23.90;;;12.50;;
82163;SDS011;71736;38.734;-9.138;2024-01-30T04:02:10;24.50;;;13.60;;
82163;SDS011;71736;38.734;-9.138;2024-01-30T04:04:39;20.60;;;12.40;;
82163;SDS011;71736;38.734;-9.138;2024-01-30T04:07:04;18.40;;;12.30;;
82163;SDS011;71736;38.734;-9.138;2024-01-30T04:09:30;21.70;;;13.90;;
82163;SDS011;71736;38.734;-9.138;2024-01-30T04:11:56;19.20;;;12.50;;
82163;SDS011;71736;38.734;-9.138;2024-01-30T04:14:22;15.90;;;11.80;;
82163;SDS011;71736;38.734;-9.138;2024-01-30T04:16:47;25.60;;;13.30;;
82163;SDS011;71736;38.734;-9.138;2024-01-30T04:19:13;20.30;;;13.20;;
82163;SDS011;71736;38.734;-9.138;2024-01-30T04:21:38;20.50;;;11.60;;
82163;SDS011;71736;38.734;-9.138;2024-01-30T04:24:04;19.00;;;11.60;;
82163;SDS011;71736;38.734;-9.138;2024-01-30T04:26:30;21.70;;;12.40;;
82163;SDS011;71736;38.734;-9.138;2024-01-30T04:28:55;20.80;;;13.00;;
82163;SDS011;71736;38.734;-9.138;2024-01-30T04:31:21;19.30;;;12.60;;
82163;SDS011;71736;38.734;-9.138;2024-01-30T04:33:46;16.90;;;11.40;;
82163;SDS011;71736;38.734;-9.138;2024-01-30T04:36:12;18.00;;;12.20;;
82163;SDS011;71736;38.734;-9.138;2024-01-30T04:38:38;21.40;;;11.70;;
82163;SDS011;71736;38.734;-9.138;2024-01-30T04:41:04;19.40;;;12.20;;
82163;SDS011;71736;38.734;-9.138;2024-01-30T04:43:30;16.30;;;11.20;;
82163;SDS011;71736;38.734;-9.138;2024-01-30T04:45:56;18.60;;;10.90;;
82163;SDS011;71736;38.734;-9.138;2024-01-30T04:48:21;16.50;;;11.20;;
82163;SDS011;71736;38.734;-9.138;2024-01-30T04:50:47;16.50;;;11.30;;
82163;SDS011;71736;38.734;-9.138;2024-01-30T04:53:12;16.60;;;11.00;;
82163;SDS011;71736;38.734;-9.138;2024-01-30T04:55:38;16.60;;;10.90;;
82163;SDS011;71736;38.734;-9.138;2024-01-30T04:58:03;21.20;;;12.00;;
82163;SDS011;71736;38.734;-9.138;2024-01-30T05:00:29;18.50;;;11.20;;
82163;SDS011;71736;38.734;-9.138;2024-01-30T05:02:55;18.10;;;11.60;;
82163;SDS011;71736;38.734;-9.138;2024-01-30T05:05:20;18.60;;;10.90;;
82163;SDS011;71736;38.734;-9.138;2024-01-30T05:07:47;18.40;;;10.30;;
82163;SDS011;71736;38.734;-9.138;2024-01-30T05:10:12;15.50;;;10.10;;
82163;SDS011;71736;38.734;-9.138;2024-01-30T05:12:39;17.00;;;9.30;;
82163;SDS011;71736;38.734;-9.138;2024-01-30T05:15:05;17.90;;;10.10;;
82163;SDS011;71736;38.734;-9.138;2024-01-30T05:17:31;15.60;;;9.90;;
82163;SDS011;71736;38.734;-9.138;2024-01-30T05:19:57;18.80;;;11.60;;
82163;SDS011;71736;38.734;-9.138;2024-01-30T05:22:22;18.80;;;10.20;;
82163;SDS011;71736;38.734;-9.138;2024-01-30T05:24:48;19.70;;;10.80;;
82163;SDS011;71736;38.734;-9.138;2024-01-30T05:27:13;17.90;;;10.80;;
82163;SDS011;71736;38.734;-9.138;2024-01-30T05:29:39;22.30;;;11.90;;
82163;SDS011;71736;38.734;-9.138;2024-01-30T05:34:31;17.90;;;9.10;;
82163;SDS011;71736;38.734;-9.138;2024-01-30T05:36:57;18.70;;;9.90;;
82163;SDS011;71736;38.734;-9.138;2024-01-30T05:39:22;19.30;;;9.30;;
82163;SDS011;71736;38.734;-9.138;2024-01-30T05:41:48;18.30;;;9.40;;
82163;SDS011;71736;38.734;-9.138;2024-01-30T05:44:13;13.50;;;8.40;;
82163;SDS011;71736;38.734;-9.138;2024-01-30T05:46:39;17.50;;;9.10;;
82163;SDS011;71736;38.734;-9.138;2024-01-30T05:49:04;15.20;;;8.60;;
82163;SDS011;71736;38.734;-9.138;2024-01-30T05:51:30;13.80;;;8.60;;
82163;SDS011;71736;38.734;-9.138;2024-01-30T05:53:55;21.70;;;9.60;;
82163;SDS011;71736;38.734;-9.138;2024-01-30T05:56:21;14.40;;;8.00;;
82163;SDS011;71736;38.734;-9.138;2024-01-30T05:58:46;14.40;;;8.60;;
82163;SDS011;71736;38.734;-9.138;2024-01-30T06:01:12;13.30;;;7.90;;
82163;SDS011;71736;38.734;-9.138;2024-01-30T06:03:37;18.50;;;8.30;;
82163;SDS011;71736;38.734;-9.138;2024-01-30T06:06:04;17.90;;;10.10;;
82163;SDS011;71736;38.734;-9.138;2024-01-30T06:08:30;17.60;;;9.10;;
82163;SDS011;71736;38.734;-9.138;2024-01-30T06:10:55;12.50;;;7.70;;
82163;SDS011;71736;38.734;-9.138;2024-01-30T06:13:20;13.30;;;7.70;;
82163;SDS011;71736;38.734;-9.138;2024-01-30T06:15:46;13.90;;;8.10;;
82163;SDS011;71736;38.734;-9.138;2024-01-30T06:18:11;14.70;;;8.50;;
82163;SDS011;71736;38.734;-9.138;2024-01-30T06:20:37;14.40;;;8.00;;
82163;SDS011;71736;38.734;-9.138;2024-01-30T06:23:02;13.20;;;8.30;;
82163;SDS011;71736;38.734;-9.138;2024-01-30T06:25:28;14.50;;;7.90;;
82163;SDS011;71736;38.734;-9.138;2024-01-30T06:27:54;16.30;;;7.70;;
82163;SDS011;71736;38.734;-9.138;2024-01-30T06:30:19;15.60;;;7.40;;
82163;SDS011;71736;38.734;-9.138;2024-01-30T06:32:45;14.80;;;8.00;;
82163;SDS011;71736;38.734;-9.138;2024-01-30T06:35:10;18.10;;;7.70;;
82163;SDS011;71736;38.734;-9.138;2024-01-30T06:37:36;12.00;;;7.40;;
82163;SDS011;71736;38.734;-9.138;2024-01-30T06:40:02;15.10;;;6.90;;
82163;SDS011;71736;38.734;-9.138;2024-01-30T06:42:30;17.10;;;8.60;;
82163;SDS011;71736;38.734;-9.138;2024-01-30T06:44:55;18.50;;;7.30;;
82163;SDS011;71736;38.734;-9.138;2024-01-30T06:47:21;13.20;;;7.90;;
82163;SDS011;71736;38.734;-9.138;2024-01-30T06:49:47;14.70;;;6.80;;
82163;SDS011;71736;38.734;-9.138;2024-01-30T06:52:12;13.90;;;6.90;;
82163;SDS011;71736;38.734;-9.138;2024-01-30T06:54:38;15.30;;;6.80;;
82163;SDS011;71736;38.734;-9.138;2024-01-30T06:57:04;17.40;;;7.50;;
82163;SDS011;71736;38.734;-9.138;2024-01-30T06:59:34;12.80;;;7.00;;
82163;SDS011;71736;38.734;-9.138;2024-01-30T07:02:00;15.50;;;7.50;;
82163;SDS011;71736;38.734;-9.138;2024-01-30T07:04:25;12.90;;;7.50;;
82163;SDS011;71736;38.734;-9.138;2024-01-30T07:06:51;16.60;;;7.60;;
82163;SDS011;71736;38.734;-9.138;2024-01-30T07:09:18;12.90;;;6.80;;
82163;SDS011;71736;38.734;-9.138;2024-01-30T07:11:44;13.50;;;6.30;;
82163;SDS011;71736;38.734;-9.138;2024-01-30T07:14:09;14.10;;;7.80;;
82163;SDS011;71736;38.734;-9.138;2024-01-30T07:16:35;17.30;;;7.50;;
82163;SDS011;71736;38.734;-9.138;2024-01-30T07:19:00;12.90;;;8.30;;
82163;SDS011;71736;38.734;-9.138;2024-01-30T07:21:26;16.60;;;6.80;;
82163;SDS011;71736;38.734;-9.138;2024-01-30T07:23:56;12.30;;;6.70;;
82163;SDS011;71736;38.734;-9.138;2024-01-30T07:26:22;16.60;;;7.60;;
82163;SDS011;71736;38.734;-9.138;2024-01-30T07:28:47;14.50;;;7.40;;
82163;SDS011;71736;38.734;-9.138;2024-01-30T07:31:13;10.20;;;5.30;;
82163;SDS011;71736;38.734;-9.138;2024-01-30T07:33:38;14.50;;;7.30;;
82163;SDS011;71736;38.734;-9.138;2024-01-30T07:36:04;12.70;;;6.80;;
82163;SDS011;71736;38.734;-9.138;2024-01-30T07:38:33;15.50;;;7.80;;
82163;SDS011;71736;38.734;-9.138;2024-01-30T07:40:59;16.00;;;6.80;;
82163;SDS011;71736;38.734;-9.138;2024-01-30T07:43:24;18.40;;;6.20;;
82163;SDS011;71736;38.734;-9.138;2024-01-30T07:45:50;9.10;;;6.00;;
82163;SDS011;71736;38.734;-9.138;2024-01-30T07:48:15;16.90;;;6.90;;
82163;SDS011;71736;38.734;-9.138;2024-01-30T07:50:41;17.00;;;6.80;;
82163;SDS011;71736;38.734;-9.138;2024-01-30T07:53:06;14.10;;;7.10;;
82163;SDS011;71736;38.734;-9.138;2024-01-30T07:55:32;13.10;;;6.10;;
82163;SDS011;71736;38.734;-9.138;2024-01-30T07:57:58;11.40;;;6.20;;
82163;SDS011;71736;38.734;-9.138;2024-01-30T08:00:24;12.90;;;6.80;;
82163;SDS011;71736;38.734;-9.138;2024-01-30T08:02:50;13.60;;;7.20;;
82163;SDS011;71736;38.734;-9.138;2024-01-30T08:05:15;11.60;;;6.60;;
82163;SDS011;71736;38.734;-9.138;2024-01-30T08:07:41;15.70;;;6.70;;
82163;SDS011;71736;38.734;-9.138;2024-01-30T08:10:08;15.40;;;7.60;;
82163;SDS011;71736;38.734;-9.138;2024-01-30T08:12:34;14.30;;;7.40;;
82163;SDS011;71736;38.734;-9.138;2024-01-30T08:14:59;14.70;;;6.90;;
82163;SDS011;71736;38.734;-9.138;2024-01-30T08:17:25;17.80;;;8.80;;
82163;SDS011;71736;38.734;-9.138;2024-01-30T08:19:50;13.00;;;6.70;;
82163;SDS011;71736;38.734;-9.138;2024-01-30T08:22:15;13.20;;;6.80;;
82163;SDS011;71736;38.734;-9.138;2024-01-30T08:24:41;11.40;;;6.50;;
82163;SDS011;71736;38.734;-9.138;2024-01-30T08:27:07;11.70;;;6.70;;
82163;SDS011;71736;38.734;-9.138;2024-01-30T08:29:35;13.90;;;7.60;;
82163;SDS011;71736;38.734;-9.138;2024-01-30T08:32:01;15.20;;;7.50;;
82163;SDS011;71736;38.734;-9.138;2024-01-30T08:34:26;14.70;;;7.60;;
82163;SDS011;71736;38.734;-9.138;2024-01-30T08:36:52;15.00;;;7.20;;
82163;SDS011;71736;38.734;-9.138;2024-01-30T08:39:18;15.80;;;7.90;;
82163;SDS011;71736;38.734;-9.138;2024-01-30T08:41:43;14.30;;;7.20;;
82163;SDS011;71736;38.734;-9.138;2024-01-30T08:44:09;16.20;;;8.20;;
82163;SDS011;71736;38.734;-9.138;2024-01-30T08:46:36;17.90;;;8.50;;
82163;SDS011;71736;38.734;-9.138;2024-01-30T08:49:02;19.50;;;8.80;;
82163;SDS011;71736;38.734;-9.138;2024-01-30T08:51:29;17.00;;;8.30;;
82163;SDS011;71736;38.734;-9.138;2024-01-30T08:53:55;15.10;;;8.00;;
82163;SDS011;71736;38.734;-9.138;2024-01-30T08:56:20;21.60;;;8.90;;
82163;SDS011;71736;38.734;-9.138;2024-01-30T08:58:46;12.40;;;7.40;;
82163;SDS011;71736;38.734;-9.138;2024-01-30T09:01:12;18.60;;;7.90;;
82163;SDS011;71736;38.734;-9.138;2024-01-30T09:03:37;12.50;;;7.70;;
82163;SDS011;71736;38.734;-9.138;2024-01-30T09:06:09;16.70;;;7.80;;
82163;SDS011;71736;38.734;-9.138;2024-01-30T09:08:35;18.40;;;7.40;;
82163;SDS011;71736;38.734;-9.138;2024-01-30T09:11:00;14.60;;;7.90;;
82163;SDS011;71736;38.734;-9.138;2024-01-30T09:13:26;13.40;;;7.10;;
82163;SDS011;71736;38.734;-9.138;2024-01-30T09:15:52;16.70;;;7.80;;
82163;SDS011;71736;38.734;-9.138;2024-01-30T09:18:18;10.10;;;5.90;;
82163;SDS011;71736;38.734;-9.138;2024-01-30T09:20:43;13.50;;;7.40;;
82163;SDS011;71736;38.734;-9.138;2024-01-30T09:23:12;16.90;;;7.70;;
82163;SDS011;71736;38.734;-9.138;2024-01-30T09:25:38;12.40;;;7.20;;
82163;SDS011;71736;38.734;-9.138;2024-01-30T09:28:04;14.60;;;7.50;;
82163;SDS011;71736;38.734;-9.138;2024-01-30T09:30:30;10.40;;;7.40;;
82163;SDS011;71736;38.734;-9.138;2024-01-30T09:32:55;12.20;;;6.90;;
82163;SDS011;71736;38.734;-9.138;2024-01-30T09:35:21;11.50;;;7.00;;
82163;SDS011;71736;38.734;-9.138;2024-01-30T09:37:46;11.10;;;7.00;;
82163;SDS011;71736;38.734;-9.138;2024-01-30T09:40:12;14.40;;;7.20;;
82163;SDS011;71736;38.734;-9.138;2024-01-30T09:42:37;11.00;;;7.10;;
82163;SDS011;71736;38.734;-9.138;2024-01-30T09:45:04;11.80;;;6.90;;
82163;SDS011;71736;38.734;-9.138;2024-01-30T09:50:22;12.10;;;7.90;;
82163;SDS011;71736;38.734;-9.138;2024-01-30T09:52:47;12.40;;;7.10;;
82163;SDS011;71736;38.734;-9.138;2024-01-30T09:55:13;14.00;;;6.70;;
82163;SDS011;71736;38.734;-9.138;2024-01-30T09:57:39;10.40;;;6.80;;
82163;SDS011;71736;38.734;-9.138;2024-01-30T10:00:06;11.30;;;7.70;;
82163;SDS011;71736;38.734;-9.138;2024-01-30T10:02:34;14.90;;;7.10;;
82163;SDS011;71736;38.734;-9.138;2024-01-30T10:05:00;14.30;;;7.90;;
82163;SDS011;71736;38.734;-9.138;2024-01-30T10:07:26;13.40;;;7.20;;
82163;SDS011;71736;38.734;-9.138;2024-01-30T10:09:52;12.70;;;6.90;;
82163;SDS011;71736;38.734;-9.138;2024-01-30T10:12:18;13.70;;;7.20;;
82163;SDS011;71736;38.734;-9.138;2024-01-30T10:14:44;12.00;;;6.30;;
82163;SDS011;71736;38.734;-9.138;2024-01-30T10:17:09;15.60;;;7.80;;
82163;SDS011;71736;38.734;-9.138;2024-01-30T10:19:36;10.90;;;6.90;;
82163;SDS011;71736;38.734;-9.138;2024-01-30T10:22:03;13.00;;;8.00;;
82163;SDS011;71736;38.734;-9.138;2024-01-30T10:24:29;12.70;;;7.60;;
82163;SDS011;71736;38.734;-9.138;2024-01-30T10:26:56;9.70;;;6.50;;
82163;SDS011;71736;38.734;-9.138;2024-01-30T10:29:21;13.80;;;8.00;;
82163;SDS011;71736;38.734;-9.138;2024-01-30T10:32:03;13.50;;;6.40;;
82163;SDS011;71736;38.734;-9.138;2024-01-30T10:34:30;19.00;;;8.60;;
82163;SDS011;71736;38.734;-9.138;2024-01-30T10:39:40;11.20;;;6.90;;
82163;SDS011;71736;38.734;-9.138;2024-01-30T10:42:06;14.60;;;7.60;;
82163;SDS011;71736;38.734;-9.138;2024-01-30T10:47:37;11.80;;;7.30;;
82163;SDS011;71736;38.734;-9.138;2024-01-30T10:50:05;10.60;;;5.80;;
82163;SDS011;71736;38.734;-9.138;2024-01-30T10:52:33;12.70;;;7.30;;
82163;SDS011;71736;38.734;-9.138;2024-01-30T10:54:59;17.60;;;8.10;;
82163;SDS011;71736;38.734;-9.138;2024-01-30T10:57:27;13.30;;;7.10;;
82163;SDS011;71736;38.734;-9.138;2024-01-30T10:59:55;11.90;;;7.30;;
82163;SDS011;71736;38.734;-9.138;2024-01-30T11:02:22;15.90;;;8.50;;
82163;SDS011;71736;38.734;-9.138;2024-01-30T11:04:55;14.90;;;7.50;;
82163;SDS011;71736;38.734;-9.138;2024-01-30T11:07:26;13.30;;;8.00;;
82163;SDS011;71736;38.734;-9.138;2024-01-30T11:09:53;11.90;;;7.80;;
82163;SDS011;71736;38.734;-9.138;2024-01-30T11:12:28;13.90;;;7.70;;
82163;SDS011;71736;38.734;-9.138;2024-01-30T11:15:07;16.30;;;7.90;;
82163;SDS011;71736;38.734;-9.138;2024-01-30T11:22:59;13.80;;;7.00;;
82163;SDS011;71736;38.734;-9.138;2024-01-30T11:25:27;14.40;;;8.10;;
82163;SDS011;71736;38.734;-9.138;2024-01-30T11:27:53;9.90;;;6.50;;
82163;SDS011;71736;38.734;-9.138;2024-01-30T11:33:07;13.40;;;7.60;;
82163;SDS011;71736;38.734;-9.138;2024-01-30T11:38:00;11.90;;;6.00;;
82163;SDS011;71736;38.734;-9.138;2024-01-30T11:40:30;16.50;;;7.70;;
82163;SDS011;71736;38.734;-9.138;2024-01-30T11:42:56;14.00;;;7.60;;
82163;SDS011;71736;38.734;-9.138;2024-01-30T11:45:23;12.90;;;6.50;;
82163;SDS011;71736;38.734;-9.138;2024-01-30T11:47:49;18.30;;;8.00;;
82163;SDS011;71736;38.734;-9.138;2024-01-30T11:50:15;12.40;;;7.90;;
82163;SDS011;71736;38.734;-9.138;2024-01-30T11:52:41;14.20;;;7.50;;
82163;SDS011;71736;38.734;-9.138;2024-01-30T11:55:07;16.30;;;7.60;;
82163;SDS011;71736;38.734;-9.138;2024-01-30T12:00:00;12.20;;;7.20;;
82163;SDS011;71736;38.734;-9.138;2024-01-30T12:02:28;11.60;;;7.40;;
82163;SDS011;71736;38.734;-9.138;2024-01-30T12:04:54;14.00;;;7.40;;
82163;SDS011;71736;38.734;-9.138;2024-01-30T12:07:19;14.30;;;6.70;;
82163;SDS011;71736;38.734;-9.138;2024-01-30T12:09:52;14.60;;;6.60;;
82163;SDS011;71736;38.734;-9.138;2024-01-30T12:12:19;12.60;;;6.10;;
82163;SDS011;71736;38.734;-9.138;2024-01-30T12:14:47;14.40;;;7.20;;
82163;SDS011;71736;38.734;-9.138;2024-01-30T12:17:22;13.60;;;6.10;;
82163;SDS011;71736;38.734;-9.138;2024-01-30T12:22:35;9.80;;;6.30;;
82163;SDS011;71736;38.734;-9.138;2024-01-30T12:25:04;17.90;;;9.70;;
82163;SDS011;71736;38.734;-9.138;2024-01-30T12:27:30;15.20;;;7.60;;
82163;SDS011;71736;38.734;-9.138;2024-01-30T12:29:57;13.60;;;7.50;;
82163;SDS011;71736;38.734;-9.138;2024-01-30T12:34:48;15.80;;;6.70;;
82163;SDS011;71736;38.734;-9.138;2024-01-30T12:37:14;24.10;;;8.00;;
82163;SDS011;71736;38.734;-9.138;2024-01-30T12:39:44;18.80;;;7.40;;
82163;SDS011;71736;38.734;-9.138;2024-01-30T12:42:10;17.80;;;5.30;;
82163;SDS011;71736;38.734;-9.138;2024-01-30T12:44:36;16.00;;;7.50;;
82163;SDS011;71736;38.734;-9.138;2024-01-30T12:47:04;11.20;;;6.60;;
82163;SDS011;71736;38.734;-9.138;2024-01-30T12:49:30;11.50;;;5.50;;
82163;SDS011;71736;38.734;-9.138;2024-01-30T12:51:56;14.80;;;6.70;;
82163;SDS011;71736;38.734;-9.138;2024-01-30T12:54:22;14.30;;;6.30;;
82163;SDS011;71736;38.734;-9.138;2024-01-30T12:56:48;14.00;;;6.90;;
82163;SDS011;71736;38.734;-9.138;2024-01-30T12:59:13;14.20;;;6.70;;
82163;SDS011;71736;38.734;-9.138;2024-01-30T13:01:39;15.40;;;6.90;;
82163;SDS011;71736;38.734;-9.138;2024-01-30T13:04:05;15.50;;;6.90;;
82163;SDS011;71736;38.734;-9.138;2024-01-30T13:06:30;10.10;;;5.50;;
82163;SDS011;71736;38.734;-9.138;2024-01-30T13:08:56;14.80;;;6.80;;
82163;SDS011;71736;38.734;-9.138;2024-01-30T13:11:21;13.80;;;6.40;;
82163;SDS011;71736;38.734;-9.138;2024-01-30T13:13:47;13.30;;;6.80;;
82163;SDS011;71736;38.734;-9.138;2024-01-30T13:16:13;12.70;;;6.90;;
82163;SDS011;71736;38.734;-9.138;2024-01-30T13:18:38;13.30;;;6.50;;
82163;SDS011;71736;38.734;-9.138;2024-01-30T13:21:04;11.90;;;6.90;;
82163;SDS011;71736;38.734;-9.138;2024-01-30T13:23:29;15.40;;;7.50;;
82163;SDS011;71736;38.734;-9.138;2024-01-30T13:25:55;15.10;;;6.70;;
82163;SDS011;71736;38.734;-9.138;2024-01-30T13:28:23;10.00;;;6.00;;
82163;SDS011;71736;38.734;-9.138;2024-01-30T13:30:48;11.80;;;7.20;;
82163;SDS011;71736;38.734;-9.138;2024-01-30T13:33:14;14.20;;;7.60;;
82163;SDS011;71736;38.734;-9.138;2024-01-30T13:35:39;14.70;;;7.00;;
82163;SDS011;71736;38.734;-9.138;2024-01-30T13:38:05;11.10;;;6.00;;
82163;SDS011;71736;38.734;-9.138;2024-01-30T13:40:30;11.40;;;7.00;;
82163;SDS011;71736;38.734;-9.138;2024-01-30T13:42:56;15.90;;;7.40;;
82163;SDS011;71736;38.734;-9.138;2024-01-30T13:45:21;17.00;;;8.00;;
82163;SDS011;71736;38.734;-9.138;2024-01-30T13:47:47;14.70;;;7.20;;
82163;SDS011;71736;38.734;-9.138;2024-01-30T13:50:12;12.60;;;6.40;;
82163;SDS011;71736;38.734;-9.138;2024-01-30T13:52:40;12.80;;;6.60;;
82163;SDS011;71736;38.734;-9.138;2024-01-30T13:55:06;11.40;;;5.60;;
82163;SDS011;71736;38.734;-9.138;2024-01-30T13:57:32;14.30;;;5.80;;
82163;SDS011;71736;38.734;-9.138;2024-01-30T14:00:00;14.40;;;6.80;;
82163;SDS011;71736;38.734;-9.138;2024-01-30T14:02:26;16.60;;;6.80;;
82163;SDS011;71736;38.734;-9.138;2024-01-30T14:04:52;15.40;;;6.50;;
82163;SDS011;71736;38.734;-9.138;2024-01-30T14:07:17;13.60;;;6.80;;
82163;SDS011;71736;38.734;-9.138;2024-01-30T14:09:46;10.60;;;6.90;;
82163;SDS011;71736;38.734;-9.138;2024-01-30T14:12:12;10.40;;;5.30;;
82163;SDS011;71736;38.734;-9.138;2024-01-30T14:14:38;12.90;;;6.70;;
82163;SDS011;71736;38.734;-9.138;2024-01-30T14:17:03;13.40;;;5.90;;
82163;SDS011;71736;38.734;-9.138;2024-01-30T14:19:32;9.80;;;6.00;;
82163;SDS011;71736;38.734;-9.138;2024-01-30T14:21:59;14.40;;;6.40;;
82163;SDS011;71736;38.734;-9.138;2024-01-30T14:24:24;13.60;;;6.50;;
82163;SDS011;71736;38.734;-9.138;2024-01-30T14:26:50;14.10;;;7.10;;
82163;SDS011;71736;38.734;-9.138;2024-01-30T14:29:15;13.80;;;6.20;;
82163;SDS011;71736;38.734;-9.138;2024-01-30T14:31:41;12.50;;;5.80;;
82163;SDS011;71736;38.734;-9.138;2024-01-30T14:34:06;12.20;;;6.80;;
82163;SDS011;71736;38.734;-9.138;2024-01-30T14:36:33;13.00;;;6.00;;
82163;SDS011;71736;38.734;-9.138;2024-01-30T14:38:59;11.80;;;6.60;;